Profil Rumah Sakit

RSU.A.YANI METRO

Ketersediaan Tempat Tidur

No Kelas Rawat Nama Ruang Kapasitas Tersedia Tglupdate
Umum Laki-laki Perempuan
1 NON RPDA KEMO 11 2 0 0 2017-09-18 09:28:46
2 NON R.NEONATUS 6 0 0 0 2017-09-18 09:28:53
3 VIP PAVILIUN 12 0 0 0 2017-09-18 09:29:00
4 KELAS I R.BEDAH I 2 1 0 0 2017-09-18 09:29:18
5 KELAS I R. SARAF 6 3 0 0 2017-09-18 09:29:42
6 KELAS I RPDC 4 0 0 0 2017-09-18 09:29:10
7 KELAS I RPDA 6 2 0 0 2017-09-18 09:29:57
8 KELAS I R.ANAK I 8 0 0 0 2017-09-18 09:30:07
9 KELAS I BERSALIN I 2 2 0 0 2017-09-18 09:29:26
10 KELAS I RPDB I 7 1 0 0 2017-09-18 09:29:51
11 KELAS II R.PARU NON TB 3 3 0 0 2017-09-18 09:31:00
12 KELAS II R.BEDAH II 5 4 0 0 2017-09-18 09:30:23
13 KELAS II R.SARAF II 6 4 0 0 2017-09-18 09:30:35
14 KELAS II RPDC II 12 6 0 0 2017-09-18 09:30:45
15 KELAS II R.ANAK II 6 0 0 0 2017-09-18 09:31:14
16 KELAS II BERSALIN II 2 2 0 0 2017-09-18 09:30:53
17 KELAS II RPDA II 6 3 0 0 2017-09-18 09:31:42
18 KELAS II RPDB II 6 3 0 0 2017-09-18 09:31:53
19 KELAS III BERSALIN III 11 7 0 0 2017-09-18 09:32:20
20 KELAS III RPDA III 6 1 0 0 2017-09-18 09:36:09
21 KELAS III RPDB III 18 5 0 0 2017-09-18 09:36:56
22 KELAS III R.PARU III NON TB 10 3 0 0 2017-09-18 09:32:07
23 KELAS III R.BEDAH III 38 22 0 0 2017-09-18 09:33:27
24 KELAS III R. SARAF III 9 2 0 0 2017-09-18 09:36:29
25 KELAS III RPDC III 6 5 0 0 2017-09-18 09:31:32
26 KELAS III R.PARU III TB 10 3 0 0 2017-09-18 09:36:39
27 KELAS III R.ANAK III 15 7 0 0 2017-09-18 09:37:06
28 ICU ICU 8 0 0 0 2017-09-18 09:37:13
* Informasi dapat berubah pada saat peserta sampai di Rumah Sakit.
* Kolom tersedia adalah jumlah bed tersedia secara umum, baik laki-laki, perempuan, infeksi, non infeksi, dll.
* Kolom tersedia (laki-laki) adalah jumlah bed tersedia khusus untuk pasien laki-laki.
* Kolom tersedia (perempuan) adalah jumlah bed tersedia khusus untuk pasien perempuan.

Sarana

No Nama Sarana Nama Fasilitas Jumlah Total Jumlah Baik Jumlah Rusak Tgl Update
1 BRONCHOSCOPY BRONCHOSCOPY 1 1 0 2017-06-12 01:59:42
2 ENDOSCOPY ENDOSCOPY 1 1 0 2017-06-12 01:59:47
3 HEMODIALISA MESIN HEMODIALISA 11 11 0 2017-06-12 01:59:51
4 RADIOLOGI CT SCAN 1 1 0 2017-06-12 01:59:54
5 RADIOLOGI PANORAMIC 1 1 0 2017-06-12 01:59:57
6 RADIOLOGI USG 4 4 0 2017-06-12 02:00:01

Jadwal Poli

No Nama Poli Jadwal Poli Jam Pelayanan Dokter Tgl Update